Latest Weather Observations for White Cliffs AWS

IDN60801

Issued at 3:03 pm EST Tuesday 30 August 2016 (issued every 30 minutes, with the page automatically refreshed every 10 minutes)

About weather observations | Map of weather stations | Latest weather observations for NSW | Other Formats
Station Details ID: 046129 Name: WHITE CLIFFS AWS Lat: -30.85 Lon: 143.07 Height: 158.0 m
Data from the previous 72 hours. | See also: Recent months at White Cliffs AWS
Date/Time
EST
Temp
°C
App
Temp
°C
Dew
Point
°C
Rel
Hum
%
Delta-T
°C
Wind Press
QNH
hPa
Press
MSL
hPa
Rain since
9am
mm
Dir  Spd
km/h
Gust
km/h
Spd
kts
Gust
kts
30/03:00pm 17.9 15.7 12.1 69 3.2 N 15 20 8 11 1016.6 1016.5 0.4
30/02:30pm 18.2 16.0 12.2 68 3.3 N 15 19 8 10 1016.9 1016.8 0.0
30/02:00pm 20.3 17.5 8.6 47 6.2 N 13 20 7 11 1016.6 1016.5 0.0
30/01:30pm 20.8 17.5 8.1 44 6.7 N 15 20 8 11 1016.7 1016.6 0.0
30/01:00pm 20.3 16.9 7.7 44 6.5 NNW 15 19 8 10 1017.2 1017.1 0.0
30/12:30pm 19.8 16.4 7.5 45 6.3 N 15 20 8 11 1017.7 1017.6 0.0
30/12:00pm 19.3 15.0 7.7 47 6.0 NNW 20 26 11 14 1018.8 1018.7 0.0
30/11:30am 19.6 15.2 6.4 42 6.6 N 19 24 10 13 1018.5 1018.4 0.0
30/11:00am 19.5 14.5 6.6 43 6.5 N 22 30 12 16 1019.2 1019.2 0.0
30/10:30am 19.2 14.1 6.0 42 6.6 N 22 30 12 16 1018.9 1018.8 0.0
30/10:00am 18.5 14.4 6.4 45 6.0 N 17 22 9 12 1018.9 1018.8 0.0
30/09:30am 17.6 14.3 6.5 48 5.5 NNE 13 17 7 9 1018.7 1018.6 0.0
30/09:00am 17.2 13.2 6.7 50 5.2 NE 17 22 9 12 1018.7 1018.6 0.0
30/08:30am 16.1 12.5 6.8 54 4.6 ENE 15 20 8 11 1018.6 1018.5 0.0
30/08:00am 16.1 13.0 7.1 55 4.5 ENE 13 15 7 8 1018.1 1018.0 0.0
30/07:30am 15.6 12.7 6.6 55 4.4 ENE 11 15 6 8 1018.0 1017.9 0.0
30/07:00am 15.7 12.8 6.4 54 4.6 ENE 11 15 6 8 1017.6 1017.5 0.0
30/06:30am 15.8 12.1 6.3 53 4.7 E 15 19 8 10 1016.6 1016.5 0.0
30/06:00am 16.5 12.0 6.1 50 5.1 NE 19 24 10 13 1016.7 1016.6 0.0
30/05:30am 16.4 11.3 6.2 51 5.0 NE 22 30 12 16 1016.8 1016.7 0.0
30/05:00am 16.6 11.1 6.1 50 5.1 NE 24 32 13 17 1016.3 1016.3 0.0
30/04:30am 16.9 11.8 6.1 49 5.3 NE 22 32 12 17 1015.9 1015.9 0.0
30/04:00am 16.9 11.4 5.8 48 5.4 NE 24 33 13 18 1016.0 1016.0 0.0
30/03:30am 17.1 11.6 5.7 47 5.6 NE 24 33 13 18 1015.8 1015.8 0.0
30/03:00am 17.7 11.8 5.6 45 5.9 NE 26 35 14 19 1016.6 1016.5 0.0
30/02:30am 17.8 12.2 5.4 44 6.0 NE 24 35 13 19 1017.0 1016.9 0.0
30/02:00am 17.6 12.3 5.2 44 6.0 ENE 22 30 12 16 1017.1 1017.0 0.0
30/01:30am 17.4 11.7 5.0 44 6.0 ENE 24 32 13 17 1017.0 1016.9 0.0
30/01:00am 17.3 11.6 4.9 44 6.0 ENE 24 35 13 19 1016.7 1016.6 0.0
30/12:30am 17.5 12.2 4.8 43 6.1 ENE 22 30 12 16 1017.2 1017.1 0.0
30/12:00am 16.7 11.9 4.4 44 5.8 E 19 24 10 13 1017.9 1017.8 0.0
 
Date/Time
EST
Temp
°C
App
Temp
°C
Dew
Point
°C
Rel
Hum
%
Delta-T
°C
Wind Press
QNH
hPa
Press
MSL
hPa
Rain since
9am
mm
Dir  Spd
km/h
Gust
km/h
Spd
kts
Gust
kts
29/11:30pm 16.4 12.2 3.8 43 5.9 E 15 19 8 10 1018.8 1018.7 0.0
29/11:00pm 16.4 12.2 3.8 43 5.9 E 15 19 8 10 1018.6 1018.5 0.0
29/10:30pm 16.1 12.4 4.2 45 5.6 E 13 19 7 10 1019.1 1019.1 0.0
29/10:00pm 16.2 12.0 3.9 44 5.7 E 15 17 8 9 1018.5 1018.4 0.0
29/09:30pm 15.9 11.7 4.0 45 5.6 E 15 17 8 9 1018.1 1018.0 0.0
29/09:00pm 16.1 11.9 3.9 44 5.7 E 15 17 8 9 1018.6 1018.5 0.0
29/08:30pm 16.5 12.6 3.6 42 6.0 E 13 13 7 7 1018.7 1018.6 0.0
29/08:00pm 16.6 12.0 3.7 42 6.0 ENE 17 19 9 10 1018.3 1018.2 0.0
29/07:30pm 16.9 12.7 3.6 41 6.2 ENE 15 17 8 9 1018.1 1018.0 0.0
29/07:00pm 17.7 13.5 3.6 39 6.6 ENE 15 17 8 9 1017.9 1017.8 0.0
29/06:30pm 18.6 14.4 3.6 37 7.1 ENE 15 17 8 9 1017.8 1017.7 0.0
29/06:00pm 19.7 14.7 3.8 35 7.6 ENE 19 22 10 12 1017.7 1017.6 0.0
29/05:30pm 20.5 14.6 3.7 33 8.1 ENE 24 32 13 17 1017.2 1017.1 0.0
29/05:00pm 21.0 15.4 3.7 32 8.3 ENE 22 33 12 18 1017.4 1017.3 0.0
29/04:30pm 21.6 15.7 3.8 31 8.6 ENE 24 32 13 17 1017.4 1017.3 0.0
29/04:00pm 21.5 15.3 4.1 32 8.5 ENE 26 33 14 18 1017.0 1016.9 0.0
29/03:30pm 21.3 15.9 4.4 33 8.3 E 22 28 12 15 1017.9 1017.8 0.0
29/03:00pm 21.0 16.0 4.6 34 8.0 E 20 28 11 15 1018.6 1018.5 0.0
29/02:30pm 20.2 15.1 4.3 35 7.7 E 20 26 11 14 1018.6 1018.5 0.0
29/02:00pm 20.5 16.1 4.5 35 7.8 E 17 20 9 11 1018.9 1018.8 0.0
29/01:30pm 19.8 15.6 3.9 35 7.6 ENE 15 20 8 11 1019.2 1019.2 0.0
29/01:00pm 19.5 14.5 3.6 35 7.6 ENE 19 22 10 12 1019.5 1019.5 0.0
29/12:30pm 19.4 14.4 3.6 35 7.5 NE 19 24 10 13 1020.0 1020.0 0.0
29/12:00pm 19.0 13.4 3.6 36 7.3 NNE 22 28 12 15 1021.0 1021.0 0.0
29/11:30am 18.4 12.7 3.1 36 7.2 NNE 22 28 12 15 1021.1 1021.1 0.0
29/11:00am 19.1 13.5 3.3 35 7.4 NNE 22 30 12 16 1021.7 1021.7 0.0
29/10:30am 18.2 12.9 2.9 36 7.1 NNE 20 28 11 15 1021.3 1021.3 0.0
29/10:00am 17.5 13.2 3.4 39 6.6 NNE 15 24 8 13 1021.7 1021.7 0.0
29/09:30am 15.5 11.7 3.9 46 5.4 ENE 13 17 7 9 1021.8 1021.8 0.0
29/09:00am 13.7 9.8 3.5 50 4.6 E 13 15 7 8 1021.8 1021.8 0.0
29/08:30am 12.8 10.0 2.9 51 4.4 E 7 7 4 4 1022.3 1022.3 0.0
29/08:00am 11.8 9.1 2.5 53 4.0 ESE 6 9 3 5 1022.2 1022.2 0.0
29/07:30am 10.4 7.0 1.8 55 3.7 ESE 9 9 5 5 1021.9 1021.9 0.0
29/07:00am 9.8 6.3 1.5 56 3.5 ESE 9 11 5 6 1021.1 1021.1 0.0
29/06:30am 9.8 6.2 0.9 54 3.7 E 9 13 5 7 1020.4 1020.4 0.0
29/06:00am 10.6 7.0 0.9 51 4.0 ESE 9 11 5 6 1020.4 1020.4 0.0
29/05:30am 11.6 8.6 0.7 47 4.6 ENE 6 6 3 3 1020.2 1020.2 0.0
29/05:00am 11.2 8.0 0.6 48 4.4 NE 7 9 4 5 1019.8 1019.8 0.0
29/04:30am 11.2 6.8 0.3 47 4.5 NE 13 15 7 8 1019.0 1019.0 0.0
29/04:00am 10.3 8.3 0.1 49 4.1 CALM 0 0 0 0 1019.3 1019.3 0.0
29/03:30am 11.1 9.1 -0.4 45 4.7 CALM 0 0 0 0 1019.0 1019.0 0.0
29/03:00am 12.5 9.2 0.0 42 5.2 NNE 7 11 4 6 1019.4 1019.4 0.0
29/02:30am 13.0 8.5 -0.3 40 5.5 NE 13 17 7 9 1019.4 1019.4 0.0
29/02:00am 13.3 8.1 0.0 40 5.6 NE 17 20 9 11 1019.5 1019.5 0.0
29/01:30am 12.8 7.6 -0.1 41 5.4 NE 17 19 9 10 1019.6 1019.6 0.0
29/01:00am 13.2 8.3 -0.4 39 5.6 NE 15 17 8 9 1019.7 1019.7 0.0
29/12:30am 13.6 8.7 -0.4 38 5.8 NE 15 17 8 9 1019.6 1019.6 0.0
29/12:00am 13.8 9.0 0.1 39 5.8 NNE 15 19 8 10 1019.4 1019.4 0.0
 
Date/Time
EST
Temp
°C
App
Temp
°C
Dew
Point
°C
Rel
Hum
%
Delta-T
°C
Wind Press
QNH
hPa
Press
MSL
hPa
Rain since
9am
mm
Dir  Spd
km/h
Gust
km/h
Spd
kts
Gust
kts
28/11:30pm 13.8 9.8 0.5 40 5.7 NE 11 15 6 8 1019.6 1019.6 0.0
28/11:00pm 13.9 9.1 0.2 39 5.8 NE 15 17 8 9 1019.7 1019.7 0.0
28/10:30pm 14.1 9.7 0.4 39 5.8 NNE 13 17 7 9 1020.3 1020.3 0.0
28/10:00pm 13.4 8.1 -0.3 39 5.7 NE 17 19 9 10 1019.6 1019.6 0.0
28/09:30pm 13.9 9.0 -0.5 37 6.0 NE 15 17 8 9 1019.9 1019.9 0.0
28/09:00pm 13.7 8.4 -0.7 37 5.9 NE 17 19 9 10 1019.8 1019.8 0.0
28/08:30pm 14.2 8.9 -0.6 36 6.2 NE 17 19 9 10 1019.9 1019.9 0.0
28/08:00pm 14.1 9.1 -1.1 35 6.2 NNE 15 15 8 8 1020.2 1020.2 0.0
28/07:30pm 15.2 10.2 -1.4 32 6.9 NE 15 15 8 8 1019.9 1019.9 0.0
28/07:00pm 15.7 11.0 -1.8 30 7.2 NE 13 15 7 8 1019.5 1019.5 0.0
28/06:30pm 17.1 12.0 -2.0 27 8.0 NNE 15 17 8 9 1019.9 1019.9 0.0
28/06:00pm 17.9 12.4 -2.4 25 8.4 N 17 22 9 12 1019.8 1019.8 0.0
28/05:30pm 18.9 12.8 -2.7 23 9.0 N 20 26 11 14 1019.6 1019.6 0.0
28/05:00pm 19.8 13.7 -2.5 22 9.4 NNE 20 26 11 14 1019.3 1019.3 0.0
28/04:30pm 20.0 13.8 -3.0 21 9.6 N 20 37 11 20 1019.4 1019.4 0.0
28/04:00pm 19.8 13.8 -3.1 21 9.5 N 19 26 10 14 1019.2 1019.2 0.0
28/03:30pm 20.4 13.9 -2.6 21 9.8 N 22 32 12 17 1019.5 1019.5 0.0
28/03:00pm 20.6 14.7 -2.5 21 9.8 N 19 30 10 16 1019.7 1019.7 0.0
28/02:30pm 20.6 14.5 -2.5 21 9.8 N 20 32 11 17 1020.1 1020.1 0.0
28/02:00pm 20.0 14.9 -1.7 23 9.3 NNE 15 22 8 12 1020.6 1020.6 0.0
28/01:30pm 19.6 13.8 -1.5 24 9.1 N 19 28 10 15 1021.1 1021.1 0.0
28/01:00pm 19.5 13.5 -1.6 24 9.0 NNW 20 28 11 15 1021.5 1021.5 0.0
28/12:30pm 19.2 13.8 -1.3 25 8.8 N 17 30 9 16 1022.0 1022.0 0.0
28/12:00pm 18.5 12.7 -1.3 26 8.4 N 19 26 10 14 1022.4 1022.4 0.0
28/11:30am 18.2 12.3 -1.1 27 8.3 NNW 20 28 11 15 1023.4 1023.3 0.0
28/11:00am 18.0 12.0 -1.3 27 8.2 N 20 24 11 13 1023.7 1023.6 0.0
28/10:30am 17.0 11.1 -1.1 29 7.7 N 20 28 11 15 1023.8 1023.7 0.0
28/10:00am 16.1 10.3 -1.5 30 7.3 N 19 24 10 13 1024.0 1023.9 0.0
28/09:30am 15.5 10.2 -0.3 34 6.7 N 17 22 9 12 1024.2 1024.1 0.0
28/09:00am 13.8 10.3 1.1 42 5.4 ENE 9 11 5 6 1024.2 1024.1 0.0
28/08:30am 11.3 8.1 1.0 49 4.3 ENE 7 11 4 6 1024.1 1024.0 0.0
28/08:00am 9.4 6.3 1.1 56 3.4 E 7 9 4 5 1023.9 1023.8 0.0
28/07:30am 7.6 3.9 0.1 59 3.0 E 9 11 5 6 1023.6 1023.5 0.0
28/07:00am 8.1 4.3 -0.4 55 3.3 ENE 9 9 5 5 1023.3 1023.2 0.0
28/06:30am 8.8 5.6 -0.2 53 3.6 N 6 7 3 4 1023.2 1023.1 0.0
28/06:00am 8.5 5.1 -0.5 53 3.5 N 7 7 4 4 1022.6 1022.6 0.0
28/05:30am 8.6 4.9 -0.2 54 3.5 NNE 9 11 5 6 1022.1 1022.1 0.0
28/05:00am 8.3 3.8 -0.2 55 3.4 NNE 13 15 7 8 1021.7 1021.7 0.0
28/04:30am 7.9 3.4 -0.6 55 3.3 NNE 13 13 7 7 1021.6 1021.6 0.0
28/04:00am 8.7 4.9 -0.6 52 3.7 N 9 11 5 6 1021.6 1021.6 0.0
28/03:30am 8.9 5.1 -0.4 52 3.7 NNE 9 9 5 5 1021.7 1021.7 0.0
28/03:00am 8.6 4.1 -0.2 54 3.5 NNE 13 15 7 8 1021.6 1021.6 0.0
28/02:30am 8.3 3.8 -0.4 54 3.4 NNE 13 15 7 8 1021.7 1021.7 0.0
28/02:00am 8.3 3.7 -0.7 53 3.5 NNE 13 15 7 8 1021.7 1021.7 0.0
28/01:30am 8.6 3.7 -0.7 52 3.7 NNE 15 17 8 9 1021.9 1021.9 0.0
28/01:00am 8.7 3.7 -0.9 51 3.7 NNE 15 17 8 9 1022.2 1022.2 0.0
28/12:30am 9.0 3.7 -0.6 51 3.8 NNE 17 19 9 10 1022.5 1022.5 0.0
28/12:00am 8.8 3.9 -0.2 53 3.6 NNE 15 17 8 9 1022.5 1022.5 0.0
 
Date/Time
EST
Temp
°C
App
Temp
°C
Dew
Point
°C
Rel
Hum
%
Delta-T
°C
Wind Press
QNH
hPa
Press
MSL
hPa
Rain since
9am
mm
Dir  Spd
km/h
Gust
km/h
Spd
kts
Gust
kts
27/11:30pm 9.0 4.2 -0.1 53 3.6 NNE 15 17 8 9 1022.9 1022.9 0.0
27/11:00pm 10.1 6.4 -0.1 49 4.1 NE 9 11 5 6 1023.3 1023.2 0.0
27/10:30pm 10.6 6.9 -0.2 47 4.4 ENE 9 11 5 6 1023.4 1023.3 0.0
27/10:00pm 10.9 7.2 -0.2 46 4.5 NE 9 11 5 6 1023.7 1023.6 0.0
27/09:30pm 11.3 8.0 -0.2 45 4.7 NE 7 9 4 5 1023.8 1023.7 0.0
27/09:00pm 11.9 8.2 0.1 44 4.9 N 9 11 5 6 1023.7 1023.6 0.0
27/08:30pm 11.8 8.1 0.0 44 4.9 N 9 11 5 6 1023.7 1023.6 0.0
27/08:00pm 13.1 9.5 0.5 42 5.3 NNW 9 9 5 5 1023.7 1023.6 0.0
27/07:30pm 13.7 10.6 0.0 39 5.8 N 6 7 3 4 1023.8 1023.7 0.0
27/07:00pm 13.7 10.5 -0.3 38 5.8 N 6 9 3 5 1023.2 1023.1 0.0
27/06:30pm 14.7 11.5 -0.6 35 6.4 NE 6 7 3 4 1022.8 1022.8 0.0
27/06:00pm 16.1 12.9 -0.6 32 7.1 NNE 6 7 3 4 1022.4 1022.4 0.0
27/05:30pm 17.3 14.0 -0.9 29 7.8 W 6 9 3 5 1022.4 1022.4 0.0
27/05:00pm 17.5 13.3 -0.7 29 7.8 WNW 11 19 6 10 1022.5 1022.5 0.0
27/04:30pm 17.2 14.3 -1.0 29 7.7 ENE 4 9 2 5 1022.5 1022.5 0.0
27/04:00pm 17.6 13.8 -0.6 29 7.8 W 9 15 5 8 1022.4 1022.4 0.0
27/03:30pm 17.7 13.6 -0.5 29 7.9 W 11 17 6 9 1022.6 1022.6 0.0

Other Formats:

Comma delimited format used in spreadsheet applications
http://www.bom.gov.au/fwo/IDN60801/IDN60801.95699.axf

JavaScript Object Notation format (JSON) in row-major order
http://www.bom.gov.au/fwo/IDN60801/IDN60801.95699.json